Key Biscayne, FL

1:17 AM EST on December 26, 2014 (GMT -0500)
Coconut Grove | Change Station
CLOSE
Current Station
Personal Weather Station
Location: Miami, FL
Elevation: 59 ft
Nearby Weather Stations

Elev 59 ft 25.74 °N, 80.22 °W | Updated 11 minutes ago

Overcast
Overcast
70.9 °F
Feels Like 70.9 °F
N
0.0
Wind Variable Wind from East

Today
High -- | Low -- °F
--% Chance of Precip.
Yesterday
High -- | Low -- °F
Precip. -- in
7:05 AM 5:37 PM
Waxing Crescent, 23% visible
Pressure 30.16 in
Visibility 10.0 miles
Clouds Few 2200 ft
Overcast 7000 ft
Dew Point 68 °F
Humidity 90%
Rainfall 0.00 in
Snow Depth Not available.
UV 0 out of 12
Pollen 1.20 out of 12
Air Quality Not available.
Flu Activity Not available.
METAR KMIA 260553Z 35003KT 10SM FEW022 OVC070 21/15 A3015 RMK AO2 SLP211 T02110150 10217 20211 55007 VISNO RWY 9L $

More Conditions Fewer Conditions

Pressure 30.16 in
Visibility 10.0 miles
Clouds Few 2200 ft
Overcast 7000 ft
Dew Point 68 °F
Humidity 90%
Rainfall 0.00 in
Snow Depth Not available.
UV 0 out of 12
Pollen 1.20 out of 12
Air Quality Not available.
Flu Activity Not available.
METAR KMIA 260553Z 35003KT 10SM FEW022 OVC070 21/15 A3015 RMK AO2 SLP211 T02110150 10217 20211 55007 VISNO RWY 9L $

More Conditions Fewer Conditions

10-Day Weather Forecast

Almanac

Astronomy

Dec. 26, 2014 Rise Set
Actual Time
Civil Twilight
Nautical Twilight
Astronomical Twilight
Moon
Length of Visible Light
Length of Day
Tomorrow will be .
, % of the Moon is Illuminated

Today's Extremes

State Highs State Lows

Community

WunderPhotos

Upload Photos

1,780,555 photos uploaded!

WunderBlogs® & News

Nearby

Air Quality

  Air Quality AQ Index Pollutant
Not available.

Snow Depth

Station Depth Elevation

Earthquake Activity

City Distance Mag. Time & Date
Minimum magnitude displayed is 2.5.

Coastal Water Temperatures

Place Temperature

Nearby Weather Stations